sensor_id;sensor_type;location;lat;lon;timestamp;temperature;humidity
19058;DHT22;9662;53.612;9.914;2022-08-30T00:02:40;18.10;99.90
19058;DHT22;9662;53.612;9.914;2022-08-30T00:05:08;17.80;99.90
19058;DHT22;9662;53.612;9.914;2022-08-30T00:07:36;17.10;99.90
19058;DHT22;9662;53.612;9.914;2022-08-30T00:10:04;17.50;99.90
19058;DHT22;9662;53.612;9.914;2022-08-30T00:12:31;17.40;99.90
19058;DHT22;9662;53.612;9.914;2022-08-30T00:14:58;17.60;99.90
19058;DHT22;9662;53.612;9.914;2022-08-30T00:17:24;17.20;99.90
19058;DHT22;9662;53.612;9.914;2022-08-30T00:19:51;17.00;99.90
19058;DHT22;9662;53.612;9.914;2022-08-30T00:22:19;17.60;99.90
19058;DHT22;9662;53.612;9.914;2022-08-30T00:24:46;17.90;99.90
19058;DHT22;9662;53.612;9.914;2022-08-30T00:27:14;17.50;99.90
19058;DHT22;9662;53.612;9.914;2022-08-30T00:29:41;17.40;99.90
19058;DHT22;9662;53.612;9.914;2022-08-30T00:32:07;17.30;99.90
19058;DHT22;9662;53.612;9.914;2022-08-30T00:34:34;17.60;99.90
19058;DHT22;9662;53.612;9.914;2022-08-30T00:37:01;17.90;99.90
19058;DHT22;9662;53.612;9.914;2022-08-30T00:39:29;18.00;99.90
19058;DHT22;9662;53.612;9.914;2022-08-30T00:41:56;18.00;99.90
19058;DHT22;9662;53.612;9.914;2022-08-30T00:44:22;18.20;99.90
19058;DHT22;9662;53.612;9.914;2022-08-30T00:46:49;18.00;99.90
19058;DHT22;9662;53.612;9.914;2022-08-30T00:49:16;18.30;99.90
19058;DHT22;9662;53.612;9.914;2022-08-30T00:51:43;18.50;99.90
19058;DHT22;9662;53.612;9.914;2022-08-30T00:54:10;18.50;99.90
19058;DHT22;9662;53.612;9.914;2022-08-30T00:56:39;18.50;99.90
19058;DHT22;9662;53.612;9.914;2022-08-30T00:59:07;18.30;99.90
19058;DHT22;9662;53.612;9.914;2022-08-30T01:01:35;17.70;99.90
19058;DHT22;9662;53.612;9.914;2022-08-30T01:04:03;17.10;99.90
19058;DHT22;9662;53.612;9.914;2022-08-30T01:06:31;17.10;99.90
19058;DHT22;9662;53.612;9.914;2022-08-30T01:08:59;17.40;99.90
19058;DHT22;9662;53.612;9.914;2022-08-30T01:11:27;17.00;99.90
19058;DHT22;9662;53.612;9.914;2022-08-30T01:13:56;16.70;99.90
19058;DHT22;9662;53.612;9.914;2022-08-30T01:16:24;17.40;99.90
19058;DHT22;9662;53.612;9.914;2022-08-30T01:18:53;17.90;99.90
19058;DHT22;9662;53.612;9.914;2022-08-30T01:21:26;18.20;99.90
19058;DHT22;9662;53.612;9.914;2022-08-30T01:23:56;18.30;99.90
19058;DHT22;9662;53.612;9.914;2022-08-30T01:26:25;18.00;99.90
19058;DHT22;9662;53.612;9.914;2022-08-30T01:28:56;17.70;99.90
19058;DHT22;9662;53.612;9.914;2022-08-30T01:31:24;17.60;99.90
19058;DHT22;9662;53.612;9.914;2022-08-30T01:33:51;17.50;99.90
19058;DHT22;9662;53.612;9.914;2022-08-30T01:36:19;17.40;99.90
19058;DHT22;9662;53.612;9.914;2022-08-30T01:38:48;17.00;99.90
19058;DHT22;9662;53.612;9.914;2022-08-30T01:41:19;17.00;99.90
19058;DHT22;9662;53.612;9.914;2022-08-30T01:43:48;17.30;99.90
19058;DHT22;9662;53.612;9.914;2022-08-30T01:46:16;17.80;99.90
19058;DHT22;9662;53.612;9.914;2022-08-30T01:48:44;17.80;99.90
19058;DHT22;9662;53.612;9.914;2022-08-30T01:51:12;17.00;99.90
19058;DHT22;9662;53.612;9.914;2022-08-30T01:53:40;17.40;99.90
19058;DHT22;9662;53.612;9.914;2022-08-30T01:56:07;17.10;99.90
19058;DHT22;9662;53.612;9.914;2022-08-30T01:58:36;16.90;99.90
19058;DHT22;9662;53.612;9.914;2022-08-30T02:01:07;17.20;99.90
19058;DHT22;9662;53.612;9.914;2022-08-30T02:03:34;17.50;99.90
19058;DHT22;9662;53.612;9.914;2022-08-30T02:06:02;17.70;99.90
19058;DHT22;9662;53.612;9.914;2022-08-30T02:08:30;17.80;99.90
19058;DHT22;9662;53.612;9.914;2022-08-30T02:10:56;17.40;99.90
19058;DHT22;9662;53.612;9.914;2022-08-30T02:13:24;17.00;99.90
19058;DHT22;9662;53.612;9.914;2022-08-30T02:15:52;17.40;99.90
19058;DHT22;9662;53.612;9.914;2022-08-30T02:18:20;17.70;99.90
19058;DHT22;9662;53.612;9.914;2022-08-30T02:20:47;17.50;99.90
19058;DHT22;9662;53.612;9.914;2022-08-30T02:23:13;16.80;99.90
19058;DHT22;9662;53.612;9.914;2022-08-30T02:25:40;16.90;99.90
19058;DHT22;9662;53.612;9.914;2022-08-30T02:28:08;17.30;99.90
19058;DHT22;9662;53.612;9.914;2022-08-30T02:30:35;17.70;99.90
19058;DHT22;9662;53.612;9.914;2022-08-30T02:33:03;17.80;99.90
19058;DHT22;9662;53.612;9.914;2022-08-30T02:35:30;18.00;99.90
19058;DHT22;9662;53.612;9.914;2022-08-30T02:37:57;17.80;99.90
19058;DHT22;9662;53.612;9.914;2022-08-30T02:40:23;17.70;99.90
19058;DHT22;9662;53.612;9.914;2022-08-30T02:42:50;17.80;99.90
19058;DHT22;9662;53.612;9.914;2022-08-30T02:45:17;17.60;99.90
19058;DHT22;9662;53.612;9.914;2022-08-30T02:47:44;17.90;99.90
19058;DHT22;9662;53.612;9.914;2022-08-30T02:50:12;18.00;99.90
19058;DHT22;9662;53.612;9.914;2022-08-30T02:52:39;17.80;99.90
19058;DHT22;9662;53.612;9.914;2022-08-30T02:55:07;17.50;99.90
19058;DHT22;9662;53.612;9.914;2022-08-30T02:57:35;17.40;99.90
19058;DHT22;9662;53.612;9.914;2022-08-30T03:00:04;17.10;99.90
19058;DHT22;9662;53.612;9.914;2022-08-30T03:02:31;16.90;99.90
19058;DHT22;9662;53.612;9.914;2022-08-30T03:04:58;16.80;99.90
19058;DHT22;9662;53.612;9.914;2022-08-30T03:07:26;16.70;99.90
19058;DHT22;9662;53.612;9.914;2022-08-30T03:09:53;17.10;99.90
19058;DHT22;9662;53.612;9.914;2022-08-30T03:12:20;17.50;99.90
19058;DHT22;9662;53.612;9.914;2022-08-30T03:14:46;17.70;99.90
19058;DHT22;9662;53.612;9.914;2022-08-30T03:17:13;17.70;99.90
19058;DHT22;9662;53.612;9.914;2022-08-30T03:19:41;17.60;99.90
19058;DHT22;9662;53.612;9.914;2022-08-30T03:22:09;17.80;99.90
19058;DHT22;9662;53.612;9.914;2022-08-30T03:24:38;17.40;99.90
19058;DHT22;9662;53.612;9.914;2022-08-30T03:27:05;17.80;99.90
19058;DHT22;9662;53.612;9.914;2022-08-30T03:29:32;17.80;99.90
19058;DHT22;9662;53.612;9.914;2022-08-30T03:31:59;17.90;99.90
19058;DHT22;9662;53.612;9.914;2022-08-30T03:34:27;17.40;99.90
19058;DHT22;9662;53.612;9.914;2022-08-30T03:36:54;17.30;99.90
19058;DHT22;9662;53.612;9.914;2022-08-30T03:39:23;17.00;99.90
19058;DHT22;9662;53.612;9.914;2022-08-30T03:41:52;17.10;99.90
19058;DHT22;9662;53.612;9.914;2022-08-30T03:44:19;17.60;99.90
19058;DHT22;9662;53.612;9.914;2022-08-30T03:46:46;17.60;99.90
19058;DHT22;9662;53.612;9.914;2022-08-30T03:49:13;17.60;99.90
19058;DHT22;9662;53.612;9.914;2022-08-30T03:51:40;17.90;99.90
19058;DHT22;9662;53.612;9.914;2022-08-30T03:54:07;18.00;99.90
19058;DHT22;9662;53.612;9.914;2022-08-30T03:56:34;17.50;99.90
19058;DHT22;9662;53.612;9.914;2022-08-30T03:59:02;17.80;99.90
19058;DHT22;9662;53.612;9.914;2022-08-30T04:01:29;18.00;99.90
19058;DHT22;9662;53.612;9.914;2022-08-30T04:03:56;18.10;99.90
19058;DHT22;9662;53.612;9.914;2022-08-30T04:06:23;17.90;99.90
19058;DHT22;9662;53.612;9.914;2022-08-30T04:08:50;18.10;99.90
19058;DHT22;9662;53.612;9.914;2022-08-30T04:11:17;18.20;99.90
19058;DHT22;9662;53.612;9.914;2022-08-30T04:13:45;18.40;99.90
19058;DHT22;9662;53.612;9.914;2022-08-30T04:16:15;18.40;99.90
19058;DHT22;9662;53.612;9.914;2022-08-30T04:18:41;18.00;99.90
19058;DHT22;9662;53.612;9.914;2022-08-30T04:21:08;17.90;99.90
19058;DHT22;9662;53.612;9.914;2022-08-30T04:23:35;17.40;99.90
19058;DHT22;9662;53.612;9.914;2022-08-30T04:26:02;17.10;99.90
19058;DHT22;9662;53.612;9.914;2022-08-30T04:28:28;17.60;99.90
19058;DHT22;9662;53.612;9.914;2022-08-30T04:30:55;17.60;99.90
19058;DHT22;9662;53.612;9.914;2022-08-30T04:33:23;16.80;99.90
19058;DHT22;9662;53.612;9.914;2022-08-30T04:35:50;16.60;99.90
19058;DHT22;9662;53.612;9.914;2022-08-30T04:38:17;16.80;99.90
19058;DHT22;9662;53.612;9.914;2022-08-30T04:40:45;17.10;99.90
19058;DHT22;9662;53.612;9.914;2022-08-30T04:43:12;17.40;99.90
19058;DHT22;9662;53.612;9.914;2022-08-30T04:45:40;17.30;99.90
19058;DHT22;9662;53.612;9.914;2022-08-30T04:48:07;17.30;99.90
19058;DHT22;9662;53.612;9.914;2022-08-30T04:50:36;17.60;99.90
19058;DHT22;9662;53.612;9.914;2022-08-30T04:53:02;17.10;99.90
19058;DHT22;9662;53.612;9.914;2022-08-30T04:55:30;16.50;99.90
19058;DHT22;9662;53.612;9.914;2022-08-30T04:57:56;16.70;99.90
19058;DHT22;9662;53.612;9.914;2022-08-30T05:00:23;17.40;99.90
19058;DHT22;9662;53.612;9.914;2022-08-30T05:02:50;17.50;99.90
19058;DHT22;9662;53.612;9.914;2022-08-30T05:05:17;17.70;99.90
19058;DHT22;9662;53.612;9.914;2022-08-30T05:08:03;17.60;99.90
19058;DHT22;9662;53.612;9.914;2022-08-30T05:10:30;17.90;99.90
19058;DHT22;9662;53.612;9.914;2022-08-30T05:12:56;17.80;99.90
19058;DHT22;9662;53.612;9.914;2022-08-30T05:15:23;18.10;99.90
19058;DHT22;9662;53.612;9.914;2022-08-30T05:17:50;17.90;99.90
19058;DHT22;9662;53.612;9.914;2022-08-30T05:20:17;17.20;99.90
19058;DHT22;9662;53.612;9.914;2022-08-30T05:22:44;17.40;99.90
19058;DHT22;9662;53.612;9.914;2022-08-30T05:25:17;17.20;99.90
19058;DHT22;9662;53.612;9.914;2022-08-30T05:27:44;17.50;99.90
19058;DHT22;9662;53.612;9.914;2022-08-30T05:30:11;16.90;99.90
19058;DHT22;9662;53.612;9.914;2022-08-30T05:32:38;16.60;99.90
19058;DHT22;9662;53.612;9.914;2022-08-30T05:35:07;16.50;99.90
19058;DHT22;9662;53.612;9.914;2022-08-30T05:37:34;16.80;99.90
19058;DHT22;9662;53.612;9.914;2022-08-30T05:40:02;16.70;99.90
19058;DHT22;9662;53.612;9.914;2022-08-30T05:42:31;17.00;99.90
19058;DHT22;9662;53.612;9.914;2022-08-30T05:44:58;17.30;99.90
19058;DHT22;9662;53.612;9.914;2022-08-30T05:47:24;17.70;99.90
19058;DHT22;9662;53.612;9.914;2022-08-30T05:49:51;17.20;99.90
19058;DHT22;9662;53.612;9.914;2022-08-30T05:52:18;16.90;99.90
19058;DHT22;9662;53.612;9.914;2022-08-30T05:54:50;16.60;99.90
19058;DHT22;9662;53.612;9.914;2022-08-30T05:57:16;16.70;99.90
19058;DHT22;9662;53.612;9.914;2022-08-30T05:59:45;16.80;99.90
19058;DHT22;9662;53.612;9.914;2022-08-30T06:02:12;17.20;99.90
19058;DHT22;9662;53.612;9.914;2022-08-30T06:04:39;17.70;99.90
19058;DHT22;9662;53.612;9.914;2022-08-30T06:07:06;17.90;99.90
19058;DHT22;9662;53.612;9.914;2022-08-30T06:09:33;17.80;99.90
19058;DHT22;9662;53.612;9.914;2022-08-30T06:11:59;18.00;99.90
19058;DHT22;9662;53.612;9.914;2022-08-30T06:14:26;18.30;99.90
19058;DHT22;9662;53.612;9.914;2022-08-30T06:16:54;18.60;99.90
19058;DHT22;9662;53.612;9.914;2022-08-30T06:19:22;18.70;99.90
19058;DHT22;9662;53.612;9.914;2022-08-30T06:21:50;18.80;99.90
19058;DHT22;9662;53.612;9.914;2022-08-30T06:24:17;19.10;99.90
19058;DHT22;9662;53.612;9.914;2022-08-30T06:26:45;19.20;99.90
19058;DHT22;9662;53.612;9.914;2022-08-30T06:29:14;19.10;99.90
19058;DHT22;9662;53.612;9.914;2022-08-30T06:31:42;19.20;99.90
19058;DHT22;9662;53.612;9.914;2022-08-30T06:34:10;19.80;99.90
19058;DHT22;9662;53.612;9.914;2022-08-30T06:36:37;19.90;99.90
19058;DHT22;9662;53.612;9.914;2022-08-30T06:39:04;20.20;99.90
19058;DHT22;9662;53.612;9.914;2022-08-30T06:41:33;20.30;99.90
19058;DHT22;9662;53.612;9.914;2022-08-30T06:44:00;20.20;99.90
19058;DHT22;9662;53.612;9.914;2022-08-30T06:46:30;20.40;99.90
19058;DHT22;9662;53.612;9.914;2022-08-30T06:48:58;20.20;99.90
19058;DHT22;9662;53.612;9.914;2022-08-30T06:51:28;20.30;99.90
19058;DHT22;9662;53.612;9.914;2022-08-30T06:53:56;20.30;99.90
19058;DHT22;9662;53.612;9.914;2022-08-30T06:56:24;20.30;99.90
19058;DHT22;9662;53.612;9.914;2022-08-30T06:58:51;20.30;99.90
19058;DHT22;9662;53.612;9.914;2022-08-30T07:01:20;20.20;99.90
19058;DHT22;9662;53.612;9.914;2022-08-30T07:03:47;20.00;99.90
19058;DHT22;9662;53.612;9.914;2022-08-30T07:06:15;20.40;99.90
19058;DHT22;9662;53.612;9.914;2022-08-30T07:08:43;20.50;99.90
19058;DHT22;9662;53.612;9.914;2022-08-30T07:11:10;20.50;99.90
19058;DHT22;9662;53.612;9.914;2022-08-30T07:13:37;20.50;99.90
19058;DHT22;9662;53.612;9.914;2022-08-30T07:16:08;20.40;99.90
19058;DHT22;9662;53.612;9.914;2022-08-30T07:18:36;20.60;99.90
19058;DHT22;9662;53.612;9.914;2022-08-30T07:21:22;20.70;99.90
19058;DHT22;9662;53.612;9.914;2022-08-30T07:23:51;20.80;99.90
19058;DHT22;9662;53.612;9.914;2022-08-30T07:26:21;21.10;99.90
19058;DHT22;9662;53.612;9.914;2022-08-30T07:28:49;21.00;99.90
19058;DHT22;9662;53.612;9.914;2022-08-30T07:31:17;20.70;99.90
19058;DHT22;9662;53.612;9.914;2022-08-30T07:33:44;20.60;99.90
19058;DHT22;9662;53.612;9.914;2022-08-30T07:36:12;20.50;99.90
19058;DHT22;9662;53.612;9.914;2022-08-30T07:38:40;20.30;99.90
19058;DHT22;9662;53.612;9.914;2022-08-30T07:41:08;20.30;99.90
19058;DHT22;9662;53.612;9.914;2022-08-30T07:43:35;20.40;99.90
19058;DHT22;9662;53.612;9.914;2022-08-30T07:46:04;20.40;99.90
19058;DHT22;9662;53.612;9.914;2022-08-30T07:48:31;20.30;99.90
19058;DHT22;9662;53.612;9.914;2022-08-30T07:50:58;20.10;99.90
19058;DHT22;9662;53.612;9.914;2022-08-30T07:53:25;20.10;99.90
19058;DHT22;9662;53.612;9.914;2022-08-30T07:55:52;20.20;99.90
19058;DHT22;9662;53.612;9.914;2022-08-30T07:58:21;20.30;99.90
19058;DHT22;9662;53.612;9.914;2022-08-30T08:00:47;20.50;99.90
19058;DHT22;9662;53.612;9.914;2022-08-30T08:03:14;20.50;99.90
19058;DHT22;9662;53.612;9.914;2022-08-30T08:05:43;20.80;99.90
19058;DHT22;9662;53.612;9.914;2022-08-30T08:08:11;21.00;99.90
19058;DHT22;9662;53.612;9.914;2022-08-30T08:10:40;20.90;99.90
19058;DHT22;9662;53.612;9.914;2022-08-30T08:13:07;20.70;99.90
19058;DHT22;9662;53.612;9.914;2022-08-30T08:15:36;20.80;99.90
19058;DHT22;9662;53.612;9.914;2022-08-30T08:18:03;20.90;99.90
19058;DHT22;9662;53.612;9.914;2022-08-30T08:20:30;21.30;99.90
19058;DHT22;9662;53.612;9.914;2022-08-30T08:22:57;21.50;99.90
19058;DHT22;9662;53.612;9.914;2022-08-30T08:25:24;21.80;99.90
19058;DHT22;9662;53.612;9.914;2022-08-30T08:27:51;21.90;99.90
19058;DHT22;9662;53.612;9.914;2022-08-30T08:30:20;21.70;99.90
19058;DHT22;9662;53.612;9.914;2022-08-30T08:32:49;21.60;99.90
19058;DHT22;9662;53.612;9.914;2022-08-30T08:35:17;21.50;99.90
19058;DHT22;9662;53.612;9.914;2022-08-30T08:37:43;21.40;99.90
19058;DHT22;9662;53.612;9.914;2022-08-30T08:40:14;21.20;99.90
19058;DHT22;9662;53.612;9.914;2022-08-30T08:42:53;21.40;99.90
19058;DHT22;9662;53.612;9.914;2022-08-30T08:45:31;21.30;99.90
19058;DHT22;9662;53.612;9.914;2022-08-30T08:48:05;21.40;99.90
19058;DHT22;9662;53.612;9.914;2022-08-30T08:50:32;21.50;99.90
19058;DHT22;9662;53.612;9.914;2022-08-30T08:53:05;21.30;99.90
19058;DHT22;9662;53.612;9.914;2022-08-30T08:55:50;21.60;99.90
19058;DHT22;9662;53.612;9.914;2022-08-30T08:58:22;21.60;99.90
19058;DHT22;9662;53.612;9.914;2022-08-30T09:00:49;21.90;99.90
19058;DHT22;9662;53.612;9.914;2022-08-30T09:03:20;21.90;99.90
19058;DHT22;9662;53.612;9.914;2022-08-30T09:05:48;21.90;99.90
19058;DHT22;9662;53.612;9.914;2022-08-30T09:08:18;21.80;99.90
19058;DHT22;9662;53.612;9.914;2022-08-30T09:10:49;21.90;99.90
19058;DHT22;9662;53.612;9.914;2022-08-30T09:13:18;22.00;99.90
19058;DHT22;9662;53.612;9.914;2022-08-30T09:15:45;21.90;99.90
19058;DHT22;9662;53.612;9.914;2022-08-30T09:18:12;21.70;99.90
19058;DHT22;9662;53.612;9.914;2022-08-30T09:20:42;21.50;99.90
19058;DHT22;9662;53.612;9.914;2022-08-30T09:23:22;21.30;99.90
19058;DHT22;9662;53.612;9.914;2022-08-30T09:25:54;21.40;99.90
19058;DHT22;9662;53.612;9.914;2022-08-30T09:28:24;21.30;99.90
19058;DHT22;9662;53.612;9.914;2022-08-30T09:31:03;21.20;99.90
19058;DHT22;9662;53.612;9.914;2022-08-30T09:33:30;21.20;99.90
19058;DHT22;9662;53.612;9.914;2022-08-30T09:36:13;21.20;99.90
19058;DHT22;9662;53.612;9.914;2022-08-30T09:38:41;21.20;99.90
19058;DHT22;9662;53.612;9.914;2022-08-30T09:41:28;21.40;99.90
19058;DHT22;9662;53.612;9.914;2022-08-30T09:44:07;21.40;99.90
19058;DHT22;9662;53.612;9.914;2022-08-30T09:46:45;21.80;99.90
19058;DHT22;9662;53.612;9.914;2022-08-30T09:49:33;22.00;99.90
19058;DHT22;9662;53.612;9.914;2022-08-30T09:52:17;22.00;99.90
19058;DHT22;9662;53.612;9.914;2022-08-30T09:55:02;21.80;99.90
19058;DHT22;9662;53.612;9.914;2022-08-30T09:57:38;22.00;99.90
19058;DHT22;9662;53.612;9.914;2022-08-30T10:00:11;21.80;99.90
19058;DHT22;9662;53.612;9.914;2022-08-30T10:02:50;21.90;99.90
19058;DHT22;9662;53.612;9.914;2022-08-30T10:05:25;21.90;99.90
19058;DHT22;9662;53.612;9.914;2022-08-30T10:08:01;21.90;99.90
19058;DHT22;9662;53.612;9.914;2022-08-30T10:10:34;21.80;99.90
19058;DHT22;9662;53.612;9.914;2022-08-30T10:13:16;21.70;99.90
19058;DHT22;9662;53.612;9.914;2022-08-30T10:15:50;21.80;99.90
19058;DHT22;9662;53.612;9.914;2022-08-30T10:18:27;22.10;99.90
19058;DHT22;9662;53.612;9.914;2022-08-30T10:21:04;22.30;99.90
19058;DHT22;9662;53.612;9.914;2022-08-30T10:23:36;22.50;99.90
19058;DHT22;9662;53.612;9.914;2022-08-30T10:26:12;22.30;99.90
19058;DHT22;9662;53.612;9.914;2022-08-30T10:28:43;22.30;99.90
19058;DHT22;9662;53.612;9.914;2022-08-30T10:31:17;22.30;99.90
19058;DHT22;9662;53.612;9.914;2022-08-30T10:33:48;22.30;99.90
19058;DHT22;9662;53.612;9.914;2022-08-30T10:36:21;22.50;99.90
19058;DHT22;9662;53.612;9.914;2022-08-30T10:38:52;22.30;99.90
19058;DHT22;9662;53.612;9.914;2022-08-30T10:41:27;22.30;99.90
19058;DHT22;9662;53.612;9.914;2022-08-30T10:43:58;22.40;99.90
19058;DHT22;9662;53.612;9.914;2022-08-30T10:46:32;22.30;99.70
19058;DHT22;9662;53.612;9.914;2022-08-30T10:49:03;22.20;98.50
19058;DHT22;9662;53.612;9.914;2022-08-30T10:51:34;22.10;99.50
19058;DHT22;9662;53.612;9.914;2022-08-30T10:54:10;22.30;99.90
19058;DHT22;9662;53.612;9.914;2022-08-30T10:56:40;22.20;99.90
19058;DHT22;9662;53.612;9.914;2022-08-30T10:59:08;22.20;99.90
19058;DHT22;9662;53.612;9.914;2022-08-30T11:01:49;22.00;99.90
19058;DHT22;9662;53.612;9.914;2022-08-30T11:04:47;21.80;99.90
19058;DHT22;9662;53.612;9.914;2022-08-30T11:07:27;21.70;99.90
19058;DHT22;9662;53.612;9.914;2022-08-30T11:10:13;21.50;99.90
19058;DHT22;9662;53.612;9.914;2022-08-30T11:12:53;21.50;99.90
19058;DHT22;9662;53.612;9.914;2022-08-30T11:15:23;21.40;99.90
19058;DHT22;9662;53.612;9.914;2022-08-30T11:17:56;21.30;99.90
19058;DHT22;9662;53.612;9.914;2022-08-30T11:20:37;21.60;99.90
19058;DHT22;9662;53.612;9.914;2022-08-30T11:23:24;21.50;99.90
19058;DHT22;9662;53.612;9.914;2022-08-30T11:25:54;21.50;99.90
19058;DHT22;9662;53.612;9.914;2022-08-30T11:29:00;21.20;99.90
19058;DHT22;9662;53.612;9.914;2022-08-30T11:31:32;21.40;99.90
19058;DHT22;9662;53.612;9.914;2022-08-30T11:33:59;21.20;99.90
19058;DHT22;9662;53.612;9.914;2022-08-30T11:39:54;21.00;99.90
19058;DHT22;9662;53.612;9.914;2022-08-30T11:42:30;20.90;99.90
19058;DHT22;9662;53.612;9.914;2022-08-30T11:48:02;20.80;99.90
19058;DHT22;9662;53.612;9.914;2022-08-30T11:50:33;20.90;99.90
19058;DHT22;9662;53.612;9.914;2022-08-30T11:53:07;20.90;99.90
19058;DHT22;9662;53.612;9.914;2022-08-30T11:55:55;21.10;99.90
19058;DHT22;9662;53.612;9.914;2022-08-30T11:58:35;21.20;99.90
19058;DHT22;9662;53.612;9.914;2022-08-30T12:01:30;21.40;99.90
19058;DHT22;9662;53.612;9.914;2022-08-30T12:04:01;21.60;99.90
19058;DHT22;9662;53.612;9.914;2022-08-30T12:06:53;21.60;99.90
19058;DHT22;9662;53.612;9.914;2022-08-30T12:12:47;21.30;99.90
19058;DHT22;9662;53.612;9.914;2022-08-30T12:15:52;21.20;99.90
19058;DHT22;9662;53.612;9.914;2022-08-30T12:18:24;21.20;99.90
19058;DHT22;9662;53.612;9.914;2022-08-30T12:20:56;21.60;99.90
19058;DHT22;9662;53.612;9.914;2022-08-30T12:23:32;21.80;99.90
19058;DHT22;9662;53.612;9.914;2022-08-30T12:26:14;21.80;99.90
19058;DHT22;9662;53.612;9.914;2022-08-30T12:28:41;21.40;99.90
19058;DHT22;9662;53.612;9.914;2022-08-30T12:31:13;21.40;99.90
19058;DHT22;9662;53.612;9.914;2022-08-30T12:33:42;21.30;99.90
19058;DHT22;9662;53.612;9.914;2022-08-30T12:36:31;21.30;99.90
19058;DHT22;9662;53.612;9.914;2022-08-30T12:39:10;21.30;99.90
19058;DHT22;9662;53.612;9.914;2022-08-30T12:41:38;21.40;99.90
19058;DHT22;9662;53.612;9.914;2022-08-30T12:44:07;21.50;99.90
19058;DHT22;9662;53.612;9.914;2022-08-30T12:46:36;21.50;99.90
19058;DHT22;9662;53.612;9.914;2022-08-30T12:49:03;21.50;99.70
19058;DHT22;9662;53.612;9.914;2022-08-30T12:51:36;21.60;99.40
19058;DHT22;9662;53.612;9.914;2022-08-30T12:54:13;21.70;98.80
19058;DHT22;9662;53.612;9.914;2022-08-30T12:56:50;21.90;97.70
19058;DHT22;9662;53.612;9.914;2022-08-30T12:59:37;22.00;97.90
19058;DHT22;9662;53.612;9.914;2022-08-30T13:02:14;22.10;97.50
19058;DHT22;9662;53.612;9.914;2022-08-30T13:04:42;22.20;97.20
19058;DHT22;9662;53.612;9.914;2022-08-30T13:07:32;22.20;97.10
19058;DHT22;9662;53.612;9.914;2022-08-30T13:10:14;22.50;96.70
19058;DHT22;9662;53.612;9.914;2022-08-30T13:12:58;22.60;96.20
19058;DHT22;9662;53.612;9.914;2022-08-30T13:15:30;22.30;95.90
19058;DHT22;9662;53.612;9.914;2022-08-30T13:18:17;22.10;96.20
19058;DHT22;9662;53.612;9.914;2022-08-30T13:20:44;22.00;96.40
19058;DHT22;9662;53.612;9.914;2022-08-30T13:23:21;22.00;96.70
19058;DHT22;9662;53.612;9.914;2022-08-30T13:25:48;22.20;96.70
19058;DHT22;9662;53.612;9.914;2022-08-30T13:28:15;22.30;96.00
19058;DHT22;9662;53.612;9.914;2022-08-30T13:30:42;22.00;95.90
19058;DHT22;9662;53.612;9.914;2022-08-30T13:33:08;21.80;96.80
19058;DHT22;9662;53.612;9.914;2022-08-30T13:35:37;21.70;96.90
19058;DHT22;9662;53.612;9.914;2022-08-30T13:38:05;21.80;96.80
19058;DHT22;9662;53.612;9.914;2022-08-30T13:40:32;21.40;96.40
19058;DHT22;9662;53.612;9.914;2022-08-30T13:42:59;21.30;97.50
19058;DHT22;9662;53.612;9.914;2022-08-30T13:45:26;21.40;97.70
19058;DHT22;9662;53.612;9.914;2022-08-30T13:47:53;21.50;96.60
19058;DHT22;9662;53.612;9.914;2022-08-30T13:50:20;21.50;96.50
19058;DHT22;9662;53.612;9.914;2022-08-30T13:52:48;21.40;95.90
19058;DHT22;9662;53.612;9.914;2022-08-30T13:55:15;21.40;95.50
19058;DHT22;9662;53.612;9.914;2022-08-30T13:57:42;21.40;95.20
19058;DHT22;9662;53.612;9.914;2022-08-30T14:00:15;21.30;94.90
19058;DHT22;9662;53.612;9.914;2022-08-30T14:02:43;21.40;94.80
19058;DHT22;9662;53.612;9.914;2022-08-30T14:05:10;21.30;94.50
19058;DHT22;9662;53.612;9.914;2022-08-30T14:07:37;21.30;94.40
19058;DHT22;9662;53.612;9.914;2022-08-30T14:10:06;21.40;94.50
19058;DHT22;9662;53.612;9.914;2022-08-30T14:12:33;21.30;94.30
19058;DHT22;9662;53.612;9.914;2022-08-30T14:15:00;21.30;94.10
19058;DHT22;9662;53.612;9.914;2022-08-30T14:17:27;21.30;93.90
19058;DHT22;9662;53.612;9.914;2022-08-30T14:19:57;21.30;94.30
19058;DHT22;9662;53.612;9.914;2022-08-30T14:22:24;21.30;93.60
19058;DHT22;9662;53.612;9.914;2022-08-30T14:24:50;21.40;93.90
19058;DHT22;9662;53.612;9.914;2022-08-30T14:27:20;21.40;93.90
19058;DHT22;9662;53.612;9.914;2022-08-30T14:29:48;21.60;93.90
19058;DHT22;9662;53.612;9.914;2022-08-30T14:32:14;21.70;93.90
19058;DHT22;9662;53.612;9.914;2022-08-30T14:34:41;21.80;93.30
19058;DHT22;9662;53.612;9.914;2022-08-30T14:37:08;21.80;93.10
19058;DHT22;9662;53.612;9.914;2022-08-30T14:39:35;21.90;93.20
19058;DHT22;9662;53.612;9.914;2022-08-30T14:42:03;21.70;93.10
19058;DHT22;9662;53.612;9.914;2022-08-30T14:44:31;21.70;93.30
19058;DHT22;9662;53.612;9.914;2022-08-30T14:46:58;22.00;93.70
19058;DHT22;9662;53.612;9.914;2022-08-30T14:49:25;22.10;93.30
19058;DHT22;9662;53.612;9.914;2022-08-30T14:51:52;22.20;92.90
19058;DHT22;9662;53.612;9.914;2022-08-30T14:54:22;22.10;92.80
19058;DHT22;9662;53.612;9.914;2022-08-30T14:56:49;21.90;93.40
19058;DHT22;9662;53.612;9.914;2022-08-30T14:59:16;21.70;93.60
19058;DHT22;9662;53.612;9.914;2022-08-30T15:01:44;21.50;94.10
19058;DHT22;9662;53.612;9.914;2022-08-30T15:04:12;21.50;94.50
19058;DHT22;9662;53.612;9.914;2022-08-30T15:06:41;21.30;94.60
19058;DHT22;9662;53.612;9.914;2022-08-30T15:09:10;21.20;94.90
19058;DHT22;9662;53.612;9.914;2022-08-30T15:11:37;21.20;94.90
19058;DHT22;9662;53.612;9.914;2022-08-30T15:14:04;21.20;95.60
19058;DHT22;9662;53.612;9.914;2022-08-30T15:16:34;21.20;95.10
19058;DHT22;9662;53.612;9.914;2022-08-30T15:19:04;21.30;95.00
19058;DHT22;9662;53.612;9.914;2022-08-30T15:21:33;21.20;94.60
19058;DHT22;9662;53.612;9.914;2022-08-30T15:24:01;21.10;94.50
19058;DHT22;9662;53.612;9.914;2022-08-30T15:26:28;21.10;94.70
19058;DHT22;9662;53.612;9.914;2022-08-30T15:28:56;21.30;94.70
19058;DHT22;9662;53.612;9.914;2022-08-30T15:31:26;21.20;95.00
19058;DHT22;9662;53.612;9.914;2022-08-30T15:33:53;21.20;94.40
19058;DHT22;9662;53.612;9.914;2022-08-30T15:36:22;21.20;94.00
19058;DHT22;9662;53.612;9.914;2022-08-30T15:38:48;21.20;94.30
19058;DHT22;9662;53.612;9.914;2022-08-30T15:41:17;21.30;94.50
19058;DHT22;9662;53.612;9.914;2022-08-30T15:43:43;21.20;94.20
19058;DHT22;9662;53.612;9.914;2022-08-30T15:46:17;21.10;94.20
19058;DHT22;9662;53.612;9.914;2022-08-30T15:48:45;21.00;94.40
19058;DHT22;9662;53.612;9.914;2022-08-30T15:51:12;21.00;94.50
19058;DHT22;9662;53.612;9.914;2022-08-30T15:53:40;20.80;94.70
19058;DHT22;9662;53.612;9.914;2022-08-30T15:56:07;20.70;94.70
19058;DHT22;9662;53.612;9.914;2022-08-30T15:58:35;20.80;95.10
19058;DHT22;9662;53.612;9.914;2022-08-30T16:01:02;20.70;95.00
19058;DHT22;9662;53.612;9.914;2022-08-30T16:03:30;20.70;95.40
19058;DHT22;9662;53.612;9.914;2022-08-30T16:05:57;20.70;95.10
19058;DHT22;9662;53.612;9.914;2022-08-30T16:08:24;20.70;94.80
19058;DHT22;9662;53.612;9.914;2022-08-30T16:10:52;20.70;95.30
19058;DHT22;9662;53.612;9.914;2022-08-30T16:13:18;20.60;95.00